sensor_id;sensor_type;location;lat;lon;timestamp;pressure;altitude;pressure_sealevel;temperature;humidity
21960;BME280;11144;43.030;25.108;2023-02-21T00:01:13;99429.56;;;4.68;100.00
21960;BME280;11144;43.030;25.108;2023-02-21T00:03:04;99419.06;;;4.71;100.00
21960;BME280;11144;43.030;25.108;2023-02-21T00:04:54;99417.22;;;4.79;100.00
21960;BME280;11144;43.030;25.108;2023-02-21T00:06:45;99419.69;;;4.90;100.00
21960;BME280;11144;43.030;25.108;2023-02-21T00:08:36;99416.13;;;4.97;100.00
21960;BME280;11144;43.030;25.108;2023-02-21T00:10:26;99407.34;;;5.01;100.00
21960;BME280;11144;43.030;25.108;2023-02-21T00:12:17;99410.81;;;5.04;100.00
21960;BME280;11144;43.030;25.108;2023-02-21T00:14:08;99401.97;;;5.13;100.00
21960;BME280;11144;43.030;25.108;2023-02-21T00:16:00;99410.50;;;5.27;100.00
21960;BME280;11144;43.030;25.108;2023-02-21T00:17:51;99414.69;;;5.40;100.00
21960;BME280;11144;43.030;25.108;2023-02-21T00:19:42;99404.91;;;5.51;100.00
21960;BME280;11144;43.030;25.108;2023-02-21T00:21:32;99398.69;;;5.59;100.00
21960;BME280;11144;43.030;25.108;2023-02-21T00:23:23;99405.56;;;5.66;100.00
21960;BME280;11144;43.030;25.108;2023-02-21T00:25:14;99408.97;;;5.71;100.00
21960;BME280;11144;43.030;25.108;2023-02-21T00:27:04;99392.28;;;5.77;100.00
21960;BME280;11144;43.030;25.108;2023-02-21T00:28:55;99395.72;;;5.82;100.00
21960;BME280;11144;43.030;25.108;2023-02-21T00:30:47;99388.66;;;5.87;100.00
21960;BME280;11144;43.030;25.108;2023-02-21T00:32:39;99379.94;;;5.85;100.00
21960;BME280;11144;43.030;25.108;2023-02-21T00:34:30;99383.47;;;5.82;100.00
21960;BME280;11144;43.030;25.108;2023-02-21T00:36:21;99383.00;;;5.56;100.00
21960;BME280;11144;43.030;25.108;2023-02-21T00:38:12;99378.88;;;5.39;100.00
21960;BME280;11144;43.030;25.108;2023-02-21T00:40:03;99369.41;;;5.29;100.00
21960;BME280;11144;43.030;25.108;2023-02-21T00:41:55;99371.31;;;5.19;100.00
21960;BME280;11144;43.030;25.108;2023-02-21T00:43:45;99375.06;;;5.00;100.00
21960;BME280;11144;43.030;25.108;2023-02-21T00:45:36;99355.09;;;4.90;100.00
21960;BME280;11144;43.030;25.108;2023-02-21T00:47:27;99371.59;;;4.95;100.00
21960;BME280;11144;43.030;25.108;2023-02-21T00:49:18;99361.31;;;4.80;100.00
21960;BME280;11144;43.030;25.108;2023-02-21T00:51:09;99358.84;;;4.70;100.00
21960;BME280;11144;43.030;25.108;2023-02-21T00:53:00;99357.03;;;4.73;100.00
21960;BME280;11144;43.030;25.108;2023-02-21T00:54:50;99350.13;;;4.69;100.00
21960;BME280;11144;43.030;25.108;2023-02-21T00:56:41;99344.97;;;4.63;100.00
21960;BME280;11144;43.030;25.108;2023-02-21T00:58:31;99351.06;;;4.62;100.00
21960;BME280;11144;43.030;25.108;2023-02-21T01:00:23;99350.09;;;4.71;100.00
21960;BME280;11144;43.030;25.108;2023-02-21T01:02:14;99347.47;;;4.72;100.00
21960;BME280;11144;43.030;25.108;2023-02-21T01:04:06;99340.41;;;4.77;100.00
21960;BME280;11144;43.030;25.108;2023-02-21T01:05:58;99340.47;;;4.74;100.00
21960;BME280;11144;43.030;25.108;2023-02-21T01:07:50;99337.75;;;4.80;100.00
21960;BME280;11144;43.030;25.108;2023-02-21T01:09:44;99337.66;;;4.89;100.00
21960;BME280;11144;43.030;25.108;2023-02-21T01:11:35;99335.84;;;4.93;100.00
21960;BME280;11144;43.030;25.108;2023-02-21T01:13:26;99327.22;;;4.86;100.00
21960;BME280;11144;43.030;25.108;2023-02-21T01:15:17;99333.28;;;4.87;100.00
21960;BME280;11144;43.030;25.108;2023-02-21T01:17:07;99328.13;;;4.85;100.00
21960;BME280;11144;43.030;25.108;2023-02-21T01:19:00;99310.56;;;4.90;100.00
21960;BME280;11144;43.030;25.108;2023-02-21T01:20:51;99306.13;;;4.94;100.00
21960;BME280;11144;43.030;25.108;2023-02-21T01:22:45;99300.03;;;4.96;100.00
21960;BME280;11144;43.030;25.108;2023-02-21T01:24:36;99305.34;;;4.90;100.00
21960;BME280;11144;43.030;25.108;2023-02-21T01:26:28;99302.69;;;4.93;100.00
21960;BME280;11144;43.030;25.108;2023-02-21T01:28:19;99301.13;;;4.77;100.00
21960;BME280;11144;43.030;25.108;2023-02-21T01:30:10;99300.38;;;4.69;100.00
21960;BME280;11144;43.030;25.108;2023-02-21T01:32:01;99289.00;;;4.70;100.00
21960;BME280;11144;43.030;25.108;2023-02-21T01:33:51;99284.69;;;4.66;100.00
21960;BME280;11144;43.030;25.108;2023-02-21T01:35:42;99291.78;;;4.58;100.00
21960;BME280;11144;43.030;25.108;2023-02-21T01:37:33;99293.47;;;4.62;100.00
21960;BME280;11144;43.030;25.108;2023-02-21T01:39:25;99291.72;;;4.64;100.00
21960;BME280;11144;43.030;25.108;2023-02-21T01:41:16;99282.09;;;4.65;100.00
21960;BME280;11144;43.030;25.108;2023-02-21T01:43:13;99274.38;;;4.56;100.00
21960;BME280;11144;43.030;25.108;2023-02-21T01:45:38;99272.66;;;4.53;100.00
21960;BME280;11144;43.030;25.108;2023-02-21T01:47:31;99277.75;;;4.65;100.00
21960;BME280;11144;43.030;25.108;2023-02-21T01:49:23;99265.38;;;4.76;100.00
21960;BME280;11144;43.030;25.108;2023-02-21T01:51:20;99264.44;;;4.79;100.00
21960;BME280;11144;43.030;25.108;2023-02-21T01:53:15;99268.81;;;4.80;100.00
21960;BME280;11144;43.030;25.108;2023-02-21T01:55:10;99275.81;;;4.79;100.00
21960;BME280;11144;43.030;25.108;2023-02-21T01:57:01;99261.78;;;4.83;100.00
21960;BME280;11144;43.030;25.108;2023-02-21T01:58:56;99263.44;;;4.90;100.00
21960;BME280;11144;43.030;25.108;2023-02-21T02:00:48;99265.06;;;4.97;100.00
21960;BME280;11144;43.030;25.108;2023-02-21T02:02:49;99257.31;;;4.90;100.00
21960;BME280;11144;43.030;25.108;2023-02-21T02:04:41;99249.44;;;4.91;100.00
21960;BME280;11144;43.030;25.108;2023-02-21T02:06:33;99259.78;;;5.00;100.00
21960;BME280;11144;43.030;25.108;2023-02-21T02:08:29;99255.44;;;4.98;100.00
21960;BME280;11144;43.030;25.108;2023-02-21T02:10:22;99252.88;;;4.95;100.00
21960;BME280;11144;43.030;25.108;2023-02-21T02:12:26;99240.81;;;4.83;100.00
21960;BME280;11144;43.030;25.108;2023-02-21T02:14:12;99240.91;;;4.77;100.00
21960;BME280;11144;43.030;25.108;2023-02-21T02:15:56;99242.69;;;4.75;100.00
21960;BME280;11144;43.030;25.108;2023-02-21T02:17:39;99237.50;;;4.72;100.00
21960;BME280;11144;43.030;25.108;2023-02-21T02:22:07;99239.41;;;4.61;100.00
21960;BME280;11144;43.030;25.108;2023-02-21T02:26:22;99232.34;;;4.65;100.00
21960;BME280;11144;43.030;25.108;2023-02-21T02:28:25;99238.41;;;4.71;100.00
21960;BME280;11144;43.030;25.108;2023-02-21T02:32:30;99233.88;;;4.81;100.00
21960;BME280;11144;43.030;25.108;2023-02-21T02:34:35;99232.09;;;4.83;100.00
21960;BME280;11144;43.030;25.108;2023-02-21T02:36:12;99229.59;;;4.77;100.00
21960;BME280;11144;43.030;25.108;2023-02-21T02:37:51;99220.03;;;4.74;100.00
21960;BME280;11144;43.030;25.108;2023-02-21T02:39:30;99226.97;;;4.75;100.00
21960;BME280;11144;43.030;25.108;2023-02-21T02:41:10;99230.38;;;4.80;100.00
21960;BME280;11144;43.030;25.108;2023-02-21T02:42:54;99226.06;;;4.78;100.00
21960;BME280;11144;43.030;25.108;2023-02-21T02:44:37;99232.19;;;4.78;100.00
21960;BME280;11144;43.030;25.108;2023-02-21T02:46:16;99227.75;;;4.82;100.00
21960;BME280;11144;43.030;25.108;2023-02-21T02:47:54;99231.25;;;4.82;100.00
21960;BME280;11144;43.030;25.108;2023-02-21T02:49:36;99221.78;;;4.72;100.00
21960;BME280;11144;43.030;25.108;2023-02-21T02:51:12;99230.56;;;4.68;100.00
21960;BME280;11144;43.030;25.108;2023-02-21T02:52:49;99227.88;;;4.74;100.00
21960;BME280;11144;43.030;25.108;2023-02-21T02:54:22;99226.22;;;4.67;100.00
21960;BME280;11144;43.030;25.108;2023-02-21T02:55:57;99237.53;;;4.69;100.00
21960;BME280;11144;43.030;25.108;2023-02-21T02:57:33;99239.25;;;4.70;100.00
21960;BME280;11144;43.030;25.108;2023-02-21T02:59:13;99239.31;;;4.67;100.00
21960;BME280;11144;43.030;25.108;2023-02-21T03:00:56;99225.41;;;4.64;100.00
21960;BME280;11144;43.030;25.108;2023-02-21T03:02:43;99237.63;;;4.63;100.00
21960;BME280;11144;43.030;25.108;2023-02-21T03:04:47;99237.53;;;4.69;100.00
21960;BME280;11144;43.030;25.108;2023-02-21T03:06:32;99232.28;;;4.69;100.00
21960;BME280;11144;43.030;25.108;2023-02-21T03:08:18;99239.34;;;4.64;100.00
21960;BME280;11144;43.030;25.108;2023-02-21T03:10:02;99237.66;;;4.62;100.00
21960;BME280;11144;43.030;25.108;2023-02-21T03:11:45;99235.06;;;4.60;100.00
21960;BME280;11144;43.030;25.108;2023-02-21T03:13:29;99242.94;;;4.57;100.00
21960;BME280;11144;43.030;25.108;2023-02-21T03:15:10;99233.38;;;4.56;100.00
21960;BME280;11144;43.030;25.108;2023-02-21T03:16:48;99246.47;;;4.56;100.00
21960;BME280;11144;43.030;25.108;2023-02-21T03:18:28;99243.00;;;4.51;100.00
21960;BME280;11144;43.030;25.108;2023-02-21T03:20:07;99244.84;;;4.46;100.00
21960;BME280;11144;43.030;25.108;2023-02-21T03:21:46;99245.09;;;4.25;100.00
21960;BME280;11144;43.030;25.108;2023-02-21T03:23:21;99255.91;;;3.95;100.00
21960;BME280;11144;43.030;25.108;2023-02-21T03:24:57;99258.53;;;3.97;100.00
21960;BME280;11144;43.030;25.108;2023-02-21T03:26:35;99250.66;;;4.00;100.00
21960;BME280;11144;43.030;25.108;2023-02-21T03:28:30;99253.25;;;4.00;100.00
21960;BME280;11144;43.030;25.108;2023-02-21T03:30:07;99250.59;;;4.04;100.00
21960;BME280;11144;43.030;25.108;2023-02-21T03:31:44;99261.06;;;4.04;100.00
21960;BME280;11144;43.030;25.108;2023-02-21T03:33:19;99266.34;;;3.98;100.00
21960;BME280;11144;43.030;25.108;2023-02-21T03:34:52;99260.25;;;3.96;100.00
21960;BME280;11144;43.030;25.108;2023-02-21T03:36:30;99253.34;;;3.89;100.00
21960;BME280;11144;43.030;25.108;2023-02-21T03:38:04;99262.06;;;3.90;100.00
21960;BME280;11144;43.030;25.108;2023-02-21T03:39:39;99264.66;;;3.94;100.00
21960;BME280;11144;43.030;25.108;2023-02-21T03:41:14;99254.19;;;3.94;100.00
21960;BME280;11144;43.030;25.108;2023-02-21T03:42:48;99261.16;;;3.95;100.00
21960;BME280;11144;43.030;25.108;2023-02-21T03:44:23;99257.72;;;3.90;100.00
21960;BME280;11144;43.030;25.108;2023-02-21T03:45:57;99262.09;;;3.87;100.00
21960;BME280;11144;43.030;25.108;2023-02-21T03:47:32;99269.03;;;3.89;100.00
21960;BME280;11144;43.030;25.108;2023-02-21T03:49:06;99257.78;;;3.84;100.00
21960;BME280;11144;43.030;25.108;2023-02-21T03:50:38;99266.50;;;3.83;100.00
21960;BME280;11144;43.030;25.108;2023-02-21T03:52:15;99275.16;;;3.88;100.00
21960;BME280;11144;43.030;25.108;2023-02-21T03:53:48;99269.91;;;3.90;100.00
21960;BME280;11144;43.030;25.108;2023-02-21T03:55:24;99262.13;;;3.85;100.00
21960;BME280;11144;43.030;25.108;2023-02-21T03:56:59;99263.00;;;3.84;100.00
21960;BME280;11144;43.030;25.108;2023-02-21T03:58:33;99257.72;;;3.90;100.00
21960;BME280;11144;43.030;25.108;2023-02-21T04:00:11;99259.41;;;3.94;100.00
21960;BME280;11144;43.030;25.108;2023-02-21T04:01:47;99262.06;;;3.91;100.00
21960;BME280;11144;43.030;25.108;2023-02-21T04:03:22;99255.09;;;3.93;100.00
21960;BME280;11144;43.030;25.108;2023-02-21T04:05:01;99249.00;;;3.88;100.00
21960;BME280;11144;43.030;25.108;2023-02-21T04:06:35;99256.84;;;3.88;100.00
21960;BME280;11144;43.030;25.108;2023-02-21T04:08:11;99262.13;;;3.85;100.00
21960;BME280;11144;43.030;25.108;2023-02-21T04:09:44;99257.78;;;3.84;100.00
21960;BME280;11144;43.030;25.108;2023-02-21T04:11:24;99250.88;;;3.77;100.00
21960;BME280;11144;43.030;25.108;2023-02-21T04:12:58;99248.38;;;3.68;100.00
21960;BME280;11144;43.030;25.108;2023-02-21T04:14:31;99256.19;;;3.71;100.00
21960;BME280;11144;43.030;25.108;2023-02-21T04:16:05;99250.88;;;3.77;100.00
21960;BME280;11144;43.030;25.108;2023-02-21T04:17:39;99243.91;;;3.79;100.00
21960;BME280;11144;43.030;25.108;2023-02-21T04:19:13;99250.97;;;3.71;100.00
21960;BME280;11144;43.030;25.108;2023-02-21T04:20:47;99241.31;;;3.75;100.00
21960;BME280;11144;43.030;25.108;2023-02-21T04:22:22;99245.66;;;3.74;100.00
21960;BME280;11144;43.030;25.108;2023-02-21T04:23:57;99249.16;;;3.75;100.00
21960;BME280;11144;43.030;25.108;2023-02-21T04:25:34;99242.19;;;3.75;100.00
21960;BME280;11144;43.030;25.108;2023-02-21T04:27:13;99251.78;;;3.73;100.00
21960;BME280;11144;43.030;25.108;2023-02-21T04:28:52;99245.75;;;3.68;100.00
21960;BME280;11144;43.030;25.108;2023-02-21T04:30:26;99244.06;;;3.61;100.00
21960;BME280;11144;43.030;25.108;2023-02-21T04:32:00;99245.00;;;3.54;100.00
21960;BME280;11144;43.030;25.108;2023-02-21T04:33:37;99244.13;;;3.55;100.00
21960;BME280;11144;43.030;25.108;2023-02-21T04:35:11;99237.19;;;3.52;100.00
21960;BME280;11144;43.030;25.108;2023-02-21T04:36:46;99235.47;;;3.51;100.00
21960;BME280;11144;43.030;25.108;2023-02-21T04:38:20;99227.59;;;3.54;100.00
21960;BME280;11144;43.030;25.108;2023-02-21T04:39:55;99243.25;;;3.56;100.00
21960;BME280;11144;43.030;25.108;2023-02-21T04:41:29;99236.31;;;3.52;100.00
21960;BME280;11144;43.030;25.108;2023-02-21T04:43:02;99233.78;;;3.43;100.00
21960;BME280;11144;43.030;25.108;2023-02-21T04:44:36;99234.69;;;3.39;100.00
21960;BME280;11144;43.030;25.108;2023-02-21T04:46:16;99233.78;;;3.46;100.00
21960;BME280;11144;43.030;25.108;2023-02-21T04:47:50;99231.97;;;3.51;100.00
21960;BME280;11144;43.030;25.108;2023-02-21T04:49:23;99239.78;;;3.55;100.00
21960;BME280;11144;43.030;25.108;2023-02-21T04:50:58;99238.13;;;3.42;100.00
21960;BME280;11144;43.030;25.108;2023-02-21T04:52:46;99238.13;;;3.42;100.00
21960;BME280;11144;43.030;25.108;2023-02-21T04:54:19;99230.28;;;3.47;100.00
21960;BME280;11144;43.030;25.108;2023-02-21T04:55:54;99237.19;;;3.52;100.00
21960;BME280;11144;43.030;25.108;2023-02-21T04:57:28;99238.91;;;3.55;100.00
21960;BME280;11144;43.030;25.108;2023-02-21T04:59:01;99231.06;;;3.55;100.00
21960;BME280;11144;43.030;25.108;2023-02-21T05:00:33;99230.19;;;3.56;100.00
21960;BME280;11144;43.030;25.108;2023-02-21T05:02:07;99233.66;;;3.58;100.00
21960;BME280;11144;43.030;25.108;2023-02-21T05:03:40;99231.03;;;3.58;100.00
21960;BME280;11144;43.030;25.108;2023-02-21T05:05:14;99234.53;;;3.57;100.00
21960;BME280;11144;43.030;25.108;2023-02-21T05:06:47;99229.34;;;3.51;100.00
21960;BME280;11144;43.030;25.108;2023-02-21T05:08:20;99221.59;;;3.45;100.00
21960;BME280;11144;43.030;25.108;2023-02-21T05:09:56;99219.84;;;3.44;100.00
21960;BME280;11144;43.030;25.108;2023-02-21T05:11:32;99232.03;;;3.45;100.00
21960;BME280;11144;43.030;25.108;2023-02-21T05:13:06;99225.91;;;3.47;100.00
21960;BME280;11144;43.030;25.108;2023-02-21T05:14:40;99232.00;;;3.48;100.00
21960;BME280;11144;43.030;25.108;2023-02-21T05:16:14;99219.81;;;3.47;100.00
21960;BME280;11144;43.030;25.108;2023-02-21T05:17:47;99219.81;;;3.47;100.00
21960;BME280;11144;43.030;25.108;2023-02-21T05:19:21;99226.75;;;3.51;100.00
21960;BME280;11144;43.030;25.108;2023-02-21T05:20:59;99223.22;;;3.55;100.00
21960;BME280;11144;43.030;25.108;2023-02-21T05:22:34;99219.75;;;3.56;100.00
21960;BME280;11144;43.030;25.108;2023-02-21T05:24:11;99216.28;;;3.51;100.00
21960;BME280;11144;43.030;25.108;2023-02-21T05:25:44;99212.88;;;3.46;100.00
21960;BME280;11144;43.030;25.108;2023-02-21T05:27:20;99219.78;;;3.50;100.00
21960;BME280;11144;43.030;25.108;2023-02-21T05:28:53;99216.28;;;3.51;100.00
21960;BME280;11144;43.030;25.108;2023-02-21T05:30:26;99223.28;;;3.49;100.00
21960;BME280;11144;43.030;25.108;2023-02-21T05:31:59;99220.66;;;3.50;100.00
21960;BME280;11144;43.030;25.108;2023-02-21T05:33:32;99223.25;;;3.52;100.00
21960;BME280;11144;43.030;25.108;2023-02-21T05:35:07;99226.69;;;3.57;100.00
21960;BME280;11144;43.030;25.108;2023-02-21T05:36:40;99214.44;;;3.62;100.00
21960;BME280;11144;43.030;25.108;2023-02-21T05:38:14;99222.28;;;3.62;100.00
21960;BME280;11144;43.030;25.108;2023-02-21T05:39:47;99218.75;;;3.64;100.00
21960;BME280;11144;43.030;25.108;2023-02-21T05:41:21;99208.31;;;3.63;100.00
21960;BME280;11144;43.030;25.108;2023-02-21T05:42:56;99216.09;;;3.69;100.00
21960;BME280;11144;43.030;25.108;2023-02-21T05:44:30;99228.25;;;3.73;100.00
21960;BME280;11144;43.030;25.108;2023-02-21T05:46:03;99229.13;;;3.74;100.00
21960;BME280;11144;43.030;25.108;2023-02-21T05:47:37;99214.38;;;3.71;100.00
21960;BME280;11144;43.030;25.108;2023-02-21T05:49:10;99215.38;;;3.55;100.00
21960;BME280;11144;43.030;25.108;2023-02-21T05:50:44;99211.84;;;3.60;100.00
21960;BME280;11144;43.030;25.108;2023-02-21T05:52:17;99218.81;;;3.62;100.00
21960;BME280;11144;43.030;25.108;2023-02-21T05:53:50;99223.97;;;3.66;100.00
21960;BME280;11144;43.030;25.108;2023-02-21T05:55:23;99229.16;;;3.72;100.00
21960;BME280;11144;43.030;25.108;2023-02-21T05:56:56;99229.97;;;3.77;100.00
21960;BME280;11144;43.030;25.108;2023-02-21T05:58:31;99226.47;;;3.78;100.00
21960;BME280;11144;43.030;25.108;2023-02-21T06:00:05;99221.22;;;3.78;100.00
21960;BME280;11144;43.030;25.108;2023-02-21T06:01:42;99226.38;;;3.87;100.00
21960;BME280;11144;43.030;25.108;2023-02-21T06:03:15;99221.16;;;3.87;100.00
21960;BME280;11144;43.030;25.108;2023-02-21T06:04:49;99220.34;;;3.82;100.00
21960;BME280;11144;43.030;25.108;2023-02-21T06:06:22;99216.84;;;3.82;100.00
21960;BME280;11144;43.030;25.108;2023-02-21T06:07:55;99216.72;;;3.91;100.00
21960;BME280;11144;43.030;25.108;2023-02-21T06:09:29;99222.69;;;4.03;100.00
21960;BME280;11144;43.030;25.108;2023-02-21T06:11:02;99206.88;;;4.15;100.00
21960;BME280;11144;43.030;25.108;2023-02-21T06:12:36;99194.66;;;4.14;100.00
21960;BME280;11144;43.030;25.108;2023-02-21T06:14:15;99208.44;;;4.27;100.00
21960;BME280;11144;43.030;25.108;2023-02-21T06:15:48;99206.69;;;4.30;100.00
21960;BME280;11144;43.030;25.108;2023-02-21T06:17:21;99195.16;;;4.42;100.00
21960;BME280;11144;43.030;25.108;2023-02-21T06:18:55;99204.69;;;4.47;100.00
21960;BME280;11144;43.030;25.108;2023-02-21T06:20:29;99211.47;;;4.63;100.00
21960;BME280;11144;43.030;25.108;2023-02-21T06:22:02;99213.84;;;4.80;100.00
21960;BME280;11144;43.030;25.108;2023-02-21T06:23:35;99207.41;;;5.00;100.00
21960;BME280;11144;43.030;25.108;2023-02-21T06:25:09;99205.22;;;5.26;100.00
21960;BME280;11144;43.030;25.108;2023-02-21T06:26:42;99216.81;;;5.63;100.00
21960;BME280;11144;43.030;25.108;2023-02-21T06:28:16;99207.31;;;6.03;100.00
21960;BME280;11144;43.030;25.108;2023-02-21T06:29:50;99209.75;;;6.53;100.00
21960;BME280;11144;43.030;25.108;2023-02-21T06:31:23;99206.78;;;7.07;100.00
21960;BME280;11144;43.030;25.108;2023-02-21T06:32:57;99204.47;;;7.30;100.00
21960;BME280;11144;43.030;25.108;2023-02-21T06:34:30;99205.66;;;7.52;100.00
21960;BME280;11144;43.030;25.108;2023-02-21T06:36:04;99204.84;;;7.82;100.00
21960;BME280;11144;43.030;25.108;2023-02-21T06:37:37;99196.72;;;8.20;100.00
21960;BME280;11144;43.030;25.108;2023-02-21T06:39:11;99205.19;;;8.61;100.00
21960;BME280;11144;43.030;25.108;2023-02-21T06:40:45;99206.28;;;9.11;100.00
21960;BME280;11144;43.030;25.108;2023-02-21T06:42:18;99205.06;;;9.73;100.00
21960;BME280;11144;43.030;25.108;2023-02-21T06:43:52;99199.75;;;10.23;100.00
21960;BME280;11144;43.030;25.108;2023-02-21T06:45:27;99193.94;;;10.60;100.00
21960;BME280;11144;43.030;25.108;2023-02-21T06:47:00;99189.19;;;10.91;100.00
21960;BME280;11144;43.030;25.108;2023-02-21T06:48:33;99200.38;;;11.19;100.00
21960;BME280;11144;43.030;25.108;2023-02-21T06:50:07;99201.84;;;11.69;100.00
21960;BME280;11144;43.030;25.108;2023-02-21T06:51:41;99191.59;;;12.22;100.00
21960;BME280;11144;43.030;25.108;2023-02-21T06:53:14;99199.94;;;12.51;100.00
21960;BME280;11144;43.030;25.108;2023-02-21T06:54:48;99190.47;;;12.46;100.00
21960;BME280;11144;43.030;25.108;2023-02-21T06:56:23;99191.34;;;12.46;100.00
21960;BME280;11144;43.030;25.108;2023-02-21T06:57:56;99198.78;;;12.57;100.00
21960;BME280;11144;43.030;25.108;2023-02-21T06:59:30;99192.22;;;12.65;100.00
21960;BME280;11144;43.030;25.108;2023-02-21T07:01:05;99205.25;;;12.88;100.00
21960;BME280;11144;43.030;25.108;2023-02-21T07:02:38;99198.69;;;13.15;100.00
21960;BME280;11144;43.030;25.108;2023-02-21T07:04:11;99198.38;;;13.21;100.00
21960;BME280;11144;43.030;25.108;2023-02-21T07:05:45;99200.31;;;13.53;100.00
21960;BME280;11144;43.030;25.108;2023-02-21T07:07:18;99194.38;;;14.00;100.00
21960;BME280;11144;43.030;25.108;2023-02-21T07:08:51;99195.38;;;14.48;100.00
21960;BME280;11144;43.030;25.108;2023-02-21T07:10:25;99186.06;;;15.03;100.00
21960;BME280;11144;43.030;25.108;2023-02-21T07:11:58;99190.19;;;15.40;100.00
21960;BME280;11144;43.030;25.108;2023-02-21T07:13:31;99187.53;;;15.85;100.00
21960;BME280;11144;43.030;25.108;2023-02-21T07:15:05;99185.31;;;16.21;100.00
21960;BME280;11144;43.030;25.108;2023-02-21T07:16:40;99188.25;;;16.60;100.00
21960;BME280;11144;43.030;25.108;2023-02-21T07:18:13;99173.41;;;16.97;100.00
21960;BME280;11144;43.030;25.108;2023-02-21T07:19:47;99176.81;;;17.27;100.00
21960;BME280;11144;43.030;25.108;2023-02-21T07:21:21;99172.25;;;17.55;100.00
21960;BME280;11144;43.030;25.108;2023-02-21T07:22:54;99171.41;;;17.67;100.00
21960;BME280;11144;43.030;25.108;2023-02-21T07:24:27;99169.88;;;17.90;100.00
21960;BME280;11144;43.030;25.108;2023-02-21T07:26:01;99175.25;;;18.15;100.00
21960;BME280;11144;43.030;25.108;2023-02-21T07:27:34;99177.94;;;18.27;100.00
21960;BME280;11144;43.030;25.108;2023-02-21T07:29:08;99173.59;;;18.39;100.00
21960;BME280;11144;43.030;25.108;2023-02-21T07:30:41;99168.22;;;18.51;100.00
21960;BME280;11144;43.030;25.108;2023-02-21T07:32:16;99164.91;;;18.48;100.00
21960;BME280;11144;43.030;25.108;2023-02-21T07:33:50;99170.81;;;18.65;100.00
21960;BME280;11144;43.030;25.108;2023-02-21T07:35:23;99166.56;;;18.86;100.00
21960;BME280;11144;43.030;25.108;2023-02-21T07:36:56;99159.44;;;19.10;100.00
21960;BME280;11144;43.030;25.108;2023-02-21T07:38:30;99156.00;;;19.44;100.00
21960;BME280;11144;43.030;25.108;2023-02-21T07:40:04;99155.91;;;19.69;94.96
21960;BME280;11144;43.030;25.108;2023-02-21T07:41:39;99146.72;;;19.95;96.09
21960;BME280;11144;43.030;25.108;2023-02-21T07:43:14;99149.97;;;20.23;96.30
21960;BME280;11144;43.030;25.108;2023-02-21T07:44:47;99154.91;;;20.51;97.98
21960;BME280;11144;43.030;25.108;2023-02-21T07:46:26;99144.88;;;20.64;86.11
21960;BME280;11144;43.030;25.108;2023-02-21T07:48:01;99144.66;;;20.67;79.42
21960;BME280;11144;43.030;25.108;2023-02-21T07:49:37;99147.56;;;20.86;78.93
21960;BME280;11144;43.030;25.108;2023-02-21T07:51:10;99142.22;;;20.97;89.81
21960;BME280;11144;43.030;25.108;2023-02-21T07:52:44;99129.13;;;21.14;85.00
21960;BME280;11144;43.030;25.108;2023-02-21T07:54:18;99124.06;;;21.32;80.30
21960;BME280;11144;43.030;25.108;2023-02-21T07:55:52;99125.22;;;21.50;75.41
21960;BME280;11144;43.030;25.108;2023-02-21T07:57:25;99129.06;;;21.68;74.05
21960;BME280;11144;43.030;25.108;2023-02-21T07:58:58;99121.19;;;21.87;71.43
21960;BME280;11144;43.030;25.108;2023-02-21T08:00:31;99120.59;;;22.04;72.07
21960;BME280;11144;43.030;25.108;2023-02-21T08:02:05;99123.41;;;21.71;66.14
21960;BME280;11144;43.030;25.108;2023-02-21T08:03:39;99125.84;;;21.85;65.61
21960;BME280;11144;43.030;25.108;2023-02-21T08:05:14;99121.97;;;21.98;65.52
21960;BME280;11144;43.030;25.108;2023-02-21T08:06:48;99128.38;;;21.55;59.85
21960;BME280;11144;43.030;25.108;2023-02-21T08:08:22;99114.47;;;21.50;60.48
21960;BME280;11144;43.030;25.108;2023-02-21T08:09:55;99106.47;;;21.59;57.61
21960;BME280;11144;43.030;25.108;2023-02-21T08:11:28;99109.50;;;21.66;54.99
21960;BME280;11144;43.030;25.108;2023-02-21T08:13:01;99111.97;;;21.58;52.39
21960;BME280;11144;43.030;25.108;2023-02-21T08:14:35;99121.06;;;21.57;50.41
21960;BME280;11144;43.030;25.108;2023-02-21T08:16:08;99117.91;;;21.41;50.04
21960;BME280;11144;43.030;25.108;2023-02-21T08:17:41;99119.94;;;21.28;48.52
21960;BME280;11144;43.030;25.108;2023-02-21T08:19:16;99118.91;;;21.40;48.26
21960;BME280;11144;43.030;25.108;2023-02-21T08:20:50;99116.72;;;21.23;46.74
21960;BME280;11144;43.030;25.108;2023-02-21T08:22:23;99113.56;;;21.29;46.11
21960;BME280;11144;43.030;25.108;2023-02-21T08:23:56;99118.03;;;21.39;46.93
21960;BME280;11144;43.030;25.108;2023-02-21T08:25:30;99107.97;;;21.52;45.12
21960;BME280;11144;43.030;25.108;2023-02-21T08:27:03;99117.19;;;21.39;43.96
21960;BME280;11144;43.030;25.108;2023-02-21T08:28:36;99111.09;;;21.26;43.15
21960;BME280;11144;43.030;25.108;2023-02-21T08:30:12;99118.28;;;21.05;42.31
21960;BME280;11144;43.030;25.108;2023-02-21T08:31:46;99109.69;;;21.00;42.20
21960;BME280;11144;43.030;25.108;2023-02-21T08:33:19;99124.47;;;20.83;42.03
21960;BME280;11144;43.030;25.108;2023-02-21T08:34:54;99116.28;;;20.85;41.38
21960;BME280;11144;43.030;25.108;2023-02-21T08:36:30;99111.28;;;20.80;40.68
21960;BME280;11144;43.030;25.108;2023-02-21T08:38:04;99109.94;;;20.97;40.75
21960;BME280;11144;43.030;25.108;2023-02-21T08:39:37;99112.91;;;21.05;40.83
21960;BME280;11144;43.030;25.108;2023-02-21T08:41:10;99100.50;;;21.13;41.19
21960;BME280;11144;43.030;25.108;2023-02-21T08:42:47;99113.59;;;21.18;40.42
21960;BME280;11144;43.030;25.108;2023-02-21T08:44:21;99110.66;;;21.10;40.07
21960;BME280;11144;43.030;25.108;2023-02-21T08:45:55;99117.50;;;20.92;39.81